Terminal Aerodrome Forecast
Issued by NWS

Home | Current Version | Previous Version | Text Only | Print | Product List | Glossary On
Versions: 1 2 3 4 5 6 7 8 9 10 11 12 13 14 15 16 17 18 19
000
FTUS44 KLZK 020200 AAA
TAFLIT
TAF AMD
KLIT 020202Z 0202/0224 30016G28KT P6SM SCT025 BKN035
      TEMPO 0202/0204 BKN025
     FM020400 30012G20KT P6SM BKN025
      TEMPO 0204/0208 SCT025
     FM020800 32010G16KT P6SM SCT025
     FM021700 VRB06KT P6SM SKC=

USA.gov is the U.S. government's official web portal to all federal, state and local government web resources and services.